Terminal Aerodrome Forecast
Issued by NWS

Home | Current Version | Previous Version | Graphics & Text | Print | Product List | Glossary On
Versions: 1 2 3 4 5 6 7 8 9 10 11 12 13
411
FTUS43 KICT 160619 CCA
TAFHUT
TAF COR
KHUT 160619Z 1606/1706 36020G30KT P6SM SCT015 OVC100
      TEMPO 1606/1609 BKN015
     FM161400 36013G20KT P6SM SCT200
     FM161600 01009KT P6SM SCT250
     FM162000 09005KT P6SM FEW250
     FM162300 15007KT P6SM SCT250=

USA.gov is the U.S. government's official web portal to all federal, state and local government web resources and services.